createdAt,value
2023-04-28T00:01:49.038Z,2.87
2023-04-28T00:04:17.802Z,2.63
2023-04-28T00:06:47.006Z,2.53
2023-04-28T00:09:14.900Z,2.57
2023-04-28T00:11:44.928Z,2.17
2023-04-28T00:14:13.290Z,2.40
2023-04-28T00:16:42.123Z,2.47
2023-04-28T00:19:10.938Z,2.23
2023-04-28T00:21:39.650Z,2.33
2023-04-28T00:24:08.431Z,2.50
2023-04-28T00:26:36.676Z,2.47
2023-04-28T00:29:05.114Z,2.17
2023-04-28T00:31:33.536Z,2.53
2023-04-28T00:34:01.922Z,2.57
2023-04-28T00:36:32.197Z,2.27
2023-04-28T00:39:00.235Z,2.40
2023-04-28T00:41:28.751Z,2.60
2023-04-28T00:43:57.332Z,2.53
2023-04-28T00:46:29.990Z,2.70
2023-04-28T00:48:58.973Z,2.77
2023-04-28T00:51:29.223Z,2.63
2023-04-28T00:53:58.134Z,2.80
2023-04-28T00:56:31.330Z,2.67
2023-04-28T00:58:59.308Z,3.30
2023-04-28T01:01:27.912Z,2.13
2023-04-28T01:03:56.555Z,2.93
2023-04-28T01:06:25.184Z,3.37
2023-04-28T01:08:54.012Z,2.57
2023-04-28T01:11:21.891Z,2.70
2023-04-28T01:13:50.390Z,2.53
2023-04-28T01:16:18.467Z,2.83
2023-04-28T01:18:48.788Z,2.73
2023-04-28T01:21:19.200Z,2.90
2023-04-28T01:23:47.160Z,2.30
2023-04-28T01:26:15.008Z,2.87
2023-04-28T01:28:42.864Z,2.53
2023-04-28T01:31:11.652Z,2.80
2023-04-28T01:33:40.386Z,2.83
2023-04-28T01:36:09.061Z,3.07
2023-04-28T01:38:37.251Z,2.97
2023-04-28T01:41:05.828Z,3.40
2023-04-28T01:43:34.645Z,3.07
2023-04-28T01:46:03.448Z,2.83
2023-04-28T01:48:32.182Z,3.10
2023-04-28T01:51:00.122Z,2.93
2023-04-28T01:53:28.323Z,3.40
2023-04-28T01:55:56.636Z,2.90
2023-04-28T01:58:25.024Z,2.67
2023-04-28T02:00:53.574Z,2.80
2023-04-28T02:03:22.229Z,3.23
2023-04-28T02:05:50.677Z,2.37
2023-04-28T02:08:19.152Z,3.00
2023-04-28T02:10:47.698Z,2.40
2023-04-28T02:13:17.245Z,2.93
2023-04-28T02:15:46.123Z,3.03
2023-04-28T02:18:14.472Z,2.87
2023-04-28T02:20:42.891Z,2.67
2023-04-28T02:23:11.538Z,2.70
2023-04-28T02:25:40.083Z,2.67
2023-04-28T02:28:08.410Z,2.57
2023-04-28T02:30:36.840Z,3.37
2023-04-28T02:33:05.478Z,3.63
2023-04-28T02:35:34.028Z,3.33
2023-04-28T02:38:02.277Z,2.87
2023-04-28T02:40:30.552Z,3.23
2023-04-28T02:42:59.117Z,2.80
2023-04-28T02:45:27.101Z,2.33
2023-04-28T02:47:55.728Z,3.67
2023-04-28T02:50:24.056Z,2.60
2023-04-28T02:52:51.984Z,3.10
2023-04-28T02:55:21.929Z,3.27
2023-04-28T02:57:50.959Z,2.80
2023-04-28T03:00:19.595Z,2.87
2023-04-28T03:02:48.189Z,3.10
2023-04-28T03:05:17.326Z,2.90
2023-04-28T03:07:45.679Z,2.83
2023-04-28T03:10:14.381Z,3.20
2023-04-28T03:12:43.017Z,3.00
2023-04-28T03:15:13.454Z,3.20
2023-04-28T03:17:42.714Z,3.37
2023-04-28T03:20:11.379Z,2.93
2023-04-28T03:22:39.742Z,2.50
2023-04-28T03:25:08.350Z,3.20
2023-04-28T03:27:37.145Z,3.30
2023-04-28T03:30:05.924Z,3.53
2023-04-28T03:32:34.458Z,3.17
2023-04-28T03:35:03.037Z,2.97
2023-04-28T03:37:31.458Z,3.27
2023-04-28T03:39:59.851Z,3.37
2023-04-28T03:42:29.314Z,3.53
2023-04-28T03:47:25.243Z,5.22
2023-04-28T03:49:53.719Z,5.17
2023-04-28T03:52:21.522Z,5.07
2023-04-28T03:54:49.885Z,5.03
2023-04-28T03:57:18.356Z,4.43
2023-04-28T03:59:46.118Z,4.30
2023-04-28T04:02:14.750Z,4.40
2023-04-28T04:04:43.131Z,4.00
2023-04-28T04:07:12.091Z,3.97
2023-04-28T04:09:40.544Z,3.90
2023-04-28T04:12:08.512Z,3.40
2023-04-28T04:14:37.216Z,3.83
2023-04-28T04:17:05.681Z,4.37
2023-04-28T04:19:34.177Z,3.63
2023-04-28T04:22:02.124Z,3.53
2023-04-28T04:24:30.674Z,3.77
2023-04-28T04:26:58.997Z,4.03
2023-04-28T04:29:27.442Z,3.20
2023-04-28T04:31:55.951Z,3.73
2023-04-28T04:34:24.437Z,3.50
2023-04-28T04:36:52.561Z,3.33
2023-04-28T04:39:20.829Z,3.83
2023-04-28T04:41:49.158Z,3.73
2023-04-28T04:44:17.502Z,2.77
2023-04-28T04:46:47.639Z,3.47
2023-04-28T04:49:15.996Z,3.60
2023-04-28T04:51:46.678Z,2.87
2023-04-28T04:54:15.323Z,3.07
2023-04-28T04:56:43.935Z,2.90
2023-04-28T04:59:12.361Z,2.93
2023-04-28T05:01:40.482Z,3.07
2023-04-28T05:04:09.220Z,3.13
2023-04-28T05:06:37.767Z,3.13
2023-04-28T05:09:05.947Z,2.80
2023-04-28T05:11:34.354Z,2.83
2023-04-28T05:14:02.909Z,3.27
2023-04-28T05:16:31.531Z,3.73
2023-04-28T05:19:00.803Z,3.27
2023-04-28T05:23:57.249Z,3.50
2023-04-28T05:26:25.995Z,3.67
2023-04-28T05:28:54.320Z,3.50
2023-04-28T05:31:22.469Z,3.33
2023-04-28T05:33:50.881Z,3.60
2023-04-28T05:36:19.291Z,3.47
2023-04-28T05:38:48.030Z,4.13
2023-04-28T05:41:16.360Z,2.93
2023-04-28T05:43:44.989Z,2.97
2023-04-28T05:46:26.058Z,3.03
2023-04-28T05:48:44.284Z,2.80
2023-04-28T05:51:12.650Z,2.97
2023-04-28T05:53:41.169Z,2.43
2023-04-28T05:56:09.751Z,2.63
2023-04-28T05:58:38.543Z,3.23
2023-04-28T06:01:07.127Z,2.50
2023-04-28T06:03:35.923Z,2.97
2023-04-28T06:08:33.444Z,2.80
2023-04-28T06:11:01.904Z,2.63
2023-04-28T06:13:30.350Z,3.20
2023-04-28T06:15:58.240Z,2.67
2023-04-28T06:18:27.726Z,2.60
2023-04-28T06:20:56.483Z,3.23
2023-04-28T06:23:25.044Z,2.47
2023-04-28T06:25:53.775Z,2.60
2023-04-28T06:28:21.814Z,2.87
2023-04-28T06:30:50.330Z,2.63
2023-04-28T06:33:18.875Z,2.27
2023-04-28T06:35:47.163Z,2.40
2023-04-28T06:38:15.717Z,2.67
2023-04-28T06:40:46.026Z,2.43
2023-04-28T06:43:15.567Z,2.50
2023-04-28T06:45:44.243Z,2.37
2023-04-28T06:48:12.873Z,2.97
2023-04-28T06:50:43.054Z,2.40
2023-04-28T06:53:11.922Z,2.63
2023-04-28T06:55:40.109Z,2.50
2023-04-28T06:58:08.036Z,2.70
2023-04-28T07:00:36.656Z,3.03
2023-04-28T07:03:05.816Z,2.67
2023-04-28T07:05:34.437Z,2.47
2023-04-28T07:08:02.491Z,2.10
2023-04-28T07:10:30.801Z,2.47
2023-04-28T07:12:59.878Z,3.30
2023-04-28T07:17:55.511Z,3.22
2023-04-28T07:20:23.925Z,3.20
2023-04-28T07:22:52.383Z,3.37
2023-04-28T07:25:20.770Z,2.80
2023-04-28T07:27:49.418Z,2.40
2023-04-28T07:30:27.204Z,2.57
2023-04-28T07:32:46.904Z,2.50
2023-04-28T07:35:14.790Z,2.60
2023-04-28T07:37:44.148Z,2.40
2023-04-28T07:40:12.779Z,2.20
2023-04-28T07:42:41.046Z,3.07
2023-04-28T07:45:09.944Z,2.13
2023-04-28T07:47:42.497Z,2.40
2023-04-28T07:50:09.114Z,2.57
2023-04-28T07:52:37.501Z,2.20
2023-04-28T07:55:06.857Z,2.30
2023-04-28T07:57:35.498Z,2.50
2023-04-28T08:00:04.179Z,1.97
2023-04-28T08:02:34.622Z,2.63
2023-04-28T08:05:03.301Z,2.63
2023-04-28T08:07:32.735Z,2.80
2023-04-28T08:10:01.854Z,2.20
2023-04-28T08:12:30.831Z,2.23
2023-04-28T08:14:59.354Z,2.27
2023-04-28T08:17:27.776Z,2.30
2023-04-28T08:19:57.656Z,2.23
2023-04-28T08:22:26.360Z,2.70
2023-04-28T08:24:54.487Z,3.20
2023-04-28T08:27:24.359Z,2.10
2023-04-28T08:29:53.520Z,2.60
2023-04-28T08:32:21.980Z,2.37
2023-04-28T08:34:50.750Z,2.27
2023-04-28T08:37:19.610Z,2.60
2023-04-28T08:39:48.100Z,2.83
2023-04-28T08:42:17.088Z,2.13
2023-04-28T08:44:46.557Z,1.97
2023-04-28T08:47:15.520Z,2.23
2023-04-28T08:49:45.660Z,2.00
2023-04-28T08:52:15.654Z,2.60
2023-04-28T08:54:44.529Z,2.23
2023-04-28T08:57:13.350Z,2.20
2023-04-28T08:59:42.517Z,1.90
2023-04-28T09:02:11.373Z,2.30
2023-04-28T09:04:40.190Z,2.10
2023-04-28T09:07:12.400Z,2.17
2023-04-28T09:09:41.246Z,2.33
2023-04-28T09:12:09.275Z,2.30
2023-04-28T09:14:38.717Z,2.23
2023-04-28T09:17:14.388Z,2.20
2023-04-28T09:19:45.210Z,2.00
2023-04-28T09:22:26.102Z,1.80
2023-04-28T09:24:43.984Z,2.10
2023-04-28T09:27:12.351Z,1.87
2023-04-28T09:29:42.259Z,2.27
2023-04-28T09:32:15.147Z,2.10
2023-04-28T09:34:46.011Z,2.30
2023-04-28T09:37:18.934Z,1.50
2023-04-28T09:39:48.642Z,2.13
2023-04-28T09:42:35.857Z,2.30
2023-04-28T09:45:05.729Z,1.67
2023-04-28T09:47:35.830Z,1.77
2023-04-28T09:50:06.923Z,2.03
2023-04-28T09:52:35.630Z,2.90
2023-04-28T09:55:05.073Z,2.47
2023-04-28T09:57:34.231Z,1.93
2023-04-28T10:05:00.387Z,2.73
2023-04-28T10:07:31.488Z,1.90
2023-04-28T10:10:00.226Z,2.23
2023-04-28T10:12:28.744Z,1.67
2023-04-28T10:14:57.896Z,1.73
2023-04-28T10:17:26.989Z,1.50
2023-04-28T10:19:55.312Z,1.93
2023-04-28T10:22:28.396Z,1.73
2023-04-28T10:25:07.599Z,1.93
2023-04-28T10:27:38.225Z,2.33
2023-04-28T10:30:27.465Z,1.80
2023-04-28T10:32:52.143Z,2.07
2023-04-28T10:35:32.576Z,3.20
2023-04-28T10:38:11.320Z,1.90
2023-04-28T10:40:43.859Z,1.73
2023-04-28T10:43:12.895Z,1.50
2023-04-28T10:45:53.816Z,1.50
2023-04-28T10:48:21.350Z,1.40
2023-04-28T10:51:14.027Z,2.23
2023-04-28T10:53:47.358Z,1.97
2023-04-28T10:56:19.998Z,1.57
2023-04-28T10:58:58.380Z,1.63
2023-04-28T11:01:27.538Z,1.23
2023-04-28T11:06:37.848Z,1.65
2023-04-28T11:09:18.547Z,1.77
2023-04-28T11:11:57.763Z,1.53
2023-04-28T11:14:27.711Z,1.30
2023-04-28T11:16:56.851Z,1.30
2023-04-28T11:19:26.356Z,1.40
2023-04-28T11:21:56.644Z,1.90
2023-04-28T11:24:32.268Z,1.10
2023-04-28T11:27:00.719Z,1.30
2023-04-28T11:29:33.677Z,1.30
2023-04-28T11:32:02.021Z,1.27
2023-04-28T11:34:31.068Z,1.77
2023-04-28T11:36:59.541Z,1.37
2023-04-28T11:39:31.222Z,1.60
2023-04-28T11:42:01.031Z,1.37
2023-04-28T11:44:30.614Z,1.43
2023-04-28T11:47:03.644Z,1.63
2023-04-28T11:49:34.568Z,2.23
2023-04-28T11:52:07.291Z,1.90
2023-04-28T11:54:36.530Z,2.03
2023-04-28T11:59:36.962Z,2.12
2023-04-28T12:02:07.546Z,1.90
2023-04-28T12:04:37.016Z,1.50
2023-04-28T12:07:07.335Z,1.60
2023-04-28T12:09:36.209Z,1.30
2023-04-28T12:12:06.434Z,1.70
2023-04-28T12:14:37.451Z,1.83
2023-04-28T12:17:06.110Z,1.50
2023-04-28T12:19:36.292Z,1.63
2023-04-28T12:22:05.701Z,1.33
2023-04-28T12:24:36.354Z,1.43
2023-04-28T12:27:25.326Z,1.33
2023-04-28T12:29:53.696Z,1.80
2023-04-28T12:32:23.691Z,1.60
2023-04-28T12:34:52.126Z,1.40
2023-04-28T12:37:22.663Z,1.77
2023-04-28T12:39:51.189Z,1.63
2023-04-28T12:42:19.430Z,1.63
2023-04-28T12:44:47.751Z,1.57
2023-04-28T12:47:17.082Z,1.90
2023-04-28T12:49:46.081Z,1.77
2023-04-28T12:54:43.437Z,1.82
2023-04-28T12:57:13.580Z,1.10
2023-04-28T12:59:41.760Z,2.00
2023-04-28T13:02:10.493Z,1.77
2023-04-28T13:04:39.181Z,1.53
2023-04-28T13:07:07.863Z,1.77
2023-04-28T13:09:38.503Z,2.00
2023-04-28T13:12:07.834Z,1.60
2023-04-28T13:14:36.064Z,1.50
2023-04-28T13:17:04.827Z,1.73
2023-04-28T13:19:34.734Z,1.50
2023-04-28T13:22:04.701Z,1.63
2023-04-28T13:24:34.836Z,1.40
2023-04-28T13:27:04.598Z,3.23
2023-04-28T13:29:32.695Z,2.10
2023-04-28T13:32:01.143Z,1.43
2023-04-28T13:34:29.754Z,1.70
2023-04-28T13:36:57.650Z,1.90
2023-04-28T13:39:26.418Z,1.57
2023-04-28T13:41:54.919Z,1.63
2023-04-28T13:44:23.556Z,1.53
2023-04-28T13:46:51.902Z,1.87
2023-04-28T13:49:20.745Z,1.50
2023-04-28T13:51:49.276Z,1.90
2023-04-28T13:54:17.155Z,1.63
2023-04-28T13:56:45.589Z,2.10
2023-04-28T13:59:14.698Z,1.73
2023-04-28T14:01:43.503Z,1.47
2023-04-28T14:04:12.252Z,1.80
2023-04-28T14:06:40.680Z,1.80
2023-04-28T14:09:09.372Z,1.27
2023-04-28T14:11:37.794Z,1.73
2023-04-28T14:14:06.201Z,1.50
2023-04-28T14:16:34.174Z,1.80
2023-04-28T14:19:02.781Z,1.23
2023-04-28T14:21:30.951Z,1.47
2023-04-28T14:23:59.300Z,1.77
2023-04-28T14:26:28.648Z,1.80
2023-04-28T14:28:57.091Z,1.50
2023-04-28T14:31:25.324Z,1.73
2023-04-28T14:33:53.680Z,2.33
2023-04-28T14:36:22.048Z,1.60
2023-04-28T14:38:49.948Z,2.10
2023-04-28T14:41:18.236Z,1.90
2023-04-28T14:43:47.088Z,1.77
2023-04-28T14:46:17.114Z,2.00
2023-04-28T14:48:45.696Z,1.63
2023-04-28T14:51:14.528Z,1.43
2023-04-28T14:53:43.256Z,1.63
2023-04-28T14:56:18.681Z,2.07
2023-04-28T14:58:41.197Z,1.50
2023-04-28T15:01:09.783Z,1.30
2023-04-28T15:03:38.798Z,2.10
2023-04-28T15:06:07.315Z,1.60
2023-04-28T15:08:35.808Z,1.47
2023-04-28T15:11:03.679Z,1.63
2023-04-28T15:13:32.971Z,1.83
2023-04-28T15:16:01.250Z,1.77
2023-04-28T15:18:29.615Z,1.80
2023-04-28T15:20:58.064Z,2.10
2023-04-28T15:23:26.531Z,1.60
2023-04-28T15:25:54.829Z,1.83
2023-04-28T15:28:23.219Z,2.40
2023-04-28T15:30:51.418Z,2.53
2023-04-28T15:33:19.780Z,1.87
2023-04-28T15:35:48.158Z,1.97
2023-04-28T15:38:20.512Z,1.57
2023-04-28T15:40:49.924Z,1.80
2023-04-28T15:43:18.888Z,2.00
2023-04-28T15:45:48.138Z,2.23
2023-04-28T15:48:16.772Z,2.07
2023-04-28T15:50:45.193Z,1.60
2023-04-28T15:53:13.647Z,1.90
2023-04-28T15:55:41.592Z,1.70
2023-04-28T15:58:11.278Z,2.20
2023-04-28T16:00:41.380Z,1.67
2023-04-28T16:03:09.657Z,1.97
2023-04-28T16:05:39.326Z,1.97
2023-04-28T16:08:08.108Z,1.70
2023-04-28T16:10:36.694Z,2.00
2023-04-28T16:13:06.812Z,1.60
2023-04-28T16:15:35.122Z,1.97
2023-04-28T16:18:03.642Z,1.80
2023-04-28T16:20:32.274Z,2.03
2023-04-28T16:23:00.791Z,2.37
2023-04-28T16:25:29.331Z,1.77
2023-04-28T16:27:57.546Z,2.27
2023-04-28T16:30:26.825Z,1.80
2023-04-28T16:37:49.769Z,1.65
2023-04-28T16:40:18.113Z,2.03
2023-04-28T16:42:46.871Z,1.93
2023-04-28T16:45:15.479Z,1.70
2023-04-28T16:47:44.033Z,2.20
2023-04-28T16:50:14.557Z,2.23
2023-04-28T16:52:43.121Z,2.03
2023-04-28T16:55:11.569Z,1.93
2023-04-28T16:57:39.787Z,1.93
2023-04-28T17:00:08.951Z,2.23
2023-04-28T17:02:37.535Z,2.03
2023-04-28T17:05:06.038Z,2.27
2023-04-28T17:07:34.566Z,2.10
2023-04-28T17:10:03.371Z,2.23
2023-04-28T17:12:32.060Z,2.43
2023-04-28T17:15:00.801Z,2.57
2023-04-28T17:17:29.289Z,3.03
2023-04-28T17:19:59.247Z,2.37
2023-04-28T17:22:28.330Z,2.67
2023-04-28T17:24:57.775Z,3.30
2023-04-28T17:29:53.510Z,2.62
2023-04-28T17:32:21.561Z,2.23
2023-04-28T17:34:50.086Z,3.10
2023-04-28T17:37:17.873Z,4.33
2023-04-28T17:39:46.435Z,5.80
2023-04-28T17:42:14.805Z,3.73
2023-04-28T17:44:43.199Z,5.23
2023-04-28T17:47:11.914Z,3.93
2023-04-28T17:49:41.660Z,4.20
2023-04-28T17:52:10.158Z,5.10
2023-04-28T17:54:38.699Z,3.50
2023-04-28T17:57:07.231Z,4.67
2023-04-28T17:59:36.130Z,5.93
2023-04-28T18:02:06.034Z,6.67
2023-04-28T18:04:34.578Z,5.27
2023-04-28T18:07:05.165Z,4.10
2023-04-28T18:09:34.257Z,3.87
2023-04-28T18:12:05.840Z,2.83
2023-04-28T18:14:34.280Z,4.07
2023-04-28T18:17:04.237Z,4.17
2023-04-28T18:19:33.064Z,8.43
2023-04-28T18:22:03.238Z,8.43
2023-04-28T18:24:34.151Z,4.00
2023-04-28T18:27:03.309Z,4.23
2023-04-28T18:29:33.505Z,4.67
2023-04-28T18:32:03.299Z,3.63
2023-04-28T18:34:32.728Z,4.83
2023-04-28T18:37:01.575Z,7.77
2023-04-28T18:39:32.304Z,28.70
2023-04-28T18:42:01.618Z,28.30
2023-04-28T18:44:30.505Z,23.57
2023-04-28T18:47:00.739Z,15.23
2023-04-28T18:49:35.357Z,12.20
2023-04-28T18:52:08.953Z,11.30
2023-04-28T18:54:44.237Z,10.13
2023-04-28T18:57:14.547Z,9.03
2023-04-28T18:59:43.305Z,10.80
2023-04-28T19:02:12.132Z,15.33
2023-04-28T19:04:42.352Z,9.93
2023-04-28T19:07:11.291Z,11.80
2023-04-28T19:09:39.889Z,11.10
2023-04-28T19:12:08.288Z,11.37
2023-04-28T19:14:36.179Z,9.80
2023-04-28T19:17:05.733Z,7.17
2023-04-28T19:19:35.602Z,5.47
2023-04-28T19:22:04.042Z,5.73
2023-04-28T19:24:32.370Z,5.43
2023-04-28T19:27:02.236Z,7.00
2023-04-28T19:29:30.344Z,8.70
2023-04-28T19:31:58.800Z,12.30
2023-04-28T19:34:27.576Z,14.80
2023-04-28T19:36:56.568Z,16.73
2023-04-28T19:39:27.422Z,12.20
2023-04-28T19:41:55.593Z,11.23
2023-04-28T19:44:23.640Z,8.73
2023-04-28T19:46:52.290Z,13.17
2023-04-28T19:49:20.290Z,16.60
2023-04-28T19:51:49.095Z,12.47
2023-04-28T19:54:17.744Z,9.17
2023-04-28T19:56:46.200Z,10.60
2023-04-28T19:59:14.531Z,10.83
2023-04-28T20:01:43.981Z,7.63
2023-04-28T20:06:40.377Z,7.67
2023-04-28T20:09:10.131Z,7.83
2023-04-28T20:11:39.113Z,6.93
2023-04-28T20:14:07.538Z,9.33
2023-04-28T20:16:36.003Z,6.67
2023-04-28T20:19:04.871Z,7.60
2023-04-28T20:21:33.848Z,7.07
2023-04-28T20:24:02.161Z,14.87
2023-04-28T20:26:32.135Z,11.33
2023-04-28T20:29:00.818Z,8.87
2023-04-28T20:31:29.360Z,8.73
2023-04-28T20:33:58.203Z,6.87
2023-04-28T20:36:27.333Z,6.67
2023-04-28T20:38:55.890Z,10.10
2023-04-28T20:41:23.921Z,11.27
2023-04-28T20:43:52.801Z,11.63
2023-04-28T20:46:21.596Z,11.60
2023-04-28T20:48:49.564Z,27.00
2023-04-28T20:51:17.933Z,25.87
2023-04-28T20:53:45.800Z,23.00
2023-04-28T20:56:14.036Z,16.87
2023-04-28T20:58:42.970Z,16.60
2023-04-28T21:01:11.563Z,16.90
2023-04-28T21:03:41.720Z,12.50
2023-04-28T21:06:10.553Z,16.33
2023-04-28T21:08:39.225Z,14.87
2023-04-28T21:11:09.454Z,10.90
2023-04-28T21:13:37.896Z,11.23
2023-04-28T21:16:06.213Z,9.43
2023-04-28T21:18:34.543Z,9.97
2023-04-28T21:21:02.771Z,9.43
2023-04-28T21:23:31.100Z,8.27
2023-04-28T21:26:00.091Z,7.33
2023-04-28T21:28:28.663Z,9.83
2023-04-28T21:30:56.543Z,9.30
2023-04-28T21:33:25.026Z,9.33
2023-04-28T21:35:52.787Z,9.23
2023-04-28T21:38:21.232Z,9.57
2023-04-28T21:40:50.217Z,10.07
2023-04-28T21:43:19.890Z,8.50
2023-04-28T21:45:48.226Z,11.53
2023-04-28T21:48:16.771Z,14.63
2023-04-28T21:50:45.321Z,11.90
2023-04-28T21:53:13.290Z,11.97
2023-04-28T21:55:42.155Z,10.80
2023-04-28T21:58:10.762Z,11.97
2023-04-28T22:00:43.131Z,11.03
2023-04-28T22:03:12.995Z,9.67
2023-04-28T22:05:41.916Z,10.23
2023-04-28T22:08:10.054Z,10.07
2023-04-28T22:10:38.574Z,10.60
2023-04-28T22:13:07.227Z,9.20
2023-04-28T22:15:35.820Z,10.90
2023-04-28T22:18:04.569Z,9.70
2023-04-28T22:20:33.511Z,10.67
2023-04-28T22:23:01.534Z,9.27
2023-04-28T22:25:30.070Z,10.17
2023-04-28T22:27:58.597Z,10.43
2023-04-28T22:30:26.569Z,9.53
2023-04-28T22:32:54.579Z,10.17
2023-04-28T22:35:23.168Z,10.93
2023-04-28T22:37:51.633Z,9.93
2023-04-28T22:40:19.673Z,9.97
2023-04-28T22:42:48.315Z,11.23
2023-04-28T22:45:16.426Z,10.03
2023-04-28T22:47:44.330Z,9.57
2023-04-28T22:50:13.515Z,10.13
2023-04-28T22:52:41.711Z,10.30
2023-04-28T23:04:11.405Z,9.43
2023-04-28T23:06:39.766Z,11.60
2023-04-28T23:09:08.555Z,11.37
2023-04-28T23:11:37.042Z,9.97
2023-04-28T23:14:05.716Z,10.43
2023-04-28T23:16:34.243Z,9.73
2023-04-28T23:19:02.735Z,9.90
2023-04-28T23:21:32.282Z,9.50
2023-04-28T23:24:00.583Z,11.33
2023-04-28T23:26:29.057Z,10.70
2023-04-28T23:28:57.573Z,9.10
2023-04-28T23:31:25.543Z,9.67
2023-04-28T23:33:54.077Z,8.73
2023-04-28T23:36:22.015Z,9.50
2023-04-28T23:38:50.035Z,9.60
2023-04-28T23:41:18.016Z,13.27
2023-04-28T23:43:46.683Z,12.70
2023-04-28T23:46:15.131Z,12.93
2023-04-28T23:48:44.562Z,12.43
2023-04-28T23:51:12.625Z,12.97
2023-04-28T23:53:41.111Z,13.60
2023-04-28T23:56:09.496Z,12.53
2023-04-28T23:58:39.115Z,14.50
